Time;durP1;ratioP1;P1;durP2;ratioP2;P2;SDS_P1;SDS_P2;PMS_P1;PMS_P2;Temp;Humidity;BMP_temperature;BMP_pressure;BME280_temperature;BME280_humidity;BME280_pressure;Samples;Min_cycle;Max_cycle;Signal;HPM_P1;HPM_P2
2022/12/18 00:01:05;;;;;;;63.53;29.48;;;;;;;-1.56;75.27;102909.13;5079722;28;20024;-41
2022/12/18 00:03:34;;;;;;;56.00;27.60;;;;;;;-1.55;75.54;102903.34;5068336;28;20037;-40
2022/12/18 00:05:59;;;;;;;56.53;26.40;;;;;;;-1.54;75.23;102895.06;5080865;28;20020;-41
2022/12/18 00:08:25;;;;;;;58.72;27.83;;;;;;;-1.65;74.99;102887.19;5079220;28;20084;-42
2022/12/18 00:10:51;;;;;;;59.70;27.63;;;;;;;-1.66;75.14;102890.47;5079341;28;20036;-44
2022/12/18 00:13:16;;;;;;;57.60;27.10;;;;;;;-1.72;74.98;102902.41;5065412;28;20036;-42
2022/12/18 00:15:41;;;;;;;54.00;25.77;;;;;;;-1.77;74.93;102888.38;5063630;28;20068;-40
2022/12/18 00:18:07;;;;;;;60.78;26.95;;;;;;;-1.79;75.05;102876.34;5063727;28;20033;-41
2022/12/18 00:20:39;;;;;;;52.75;25.45;;;;;;;-1.74;75.22;102860.09;5065053;28;20099;-40
2022/12/18 00:23:06;;;;;;;55.25;26.77;;;;;;;-1.86;75.07;102863.81;5070829;28;20021;-40
2022/12/18 00:25:36;;;;;;;58.05;25.98;;;;;;;-1.86;75.60;102863.81;5062516;28;20016;-41
2022/12/18 00:28:03;;;;;;;54.08;25.48;;;;;;;-1.89;75.27;102871.91;5061179;28;20074;-40
2022/12/18 00:30:29;;;;;;;55.63;24.85;;;;;;;-1.93;75.08;102874.84;5060166;28;20024;-43
2022/12/18 00:32:54;;;;;;;53.33;25.27;;;;;;;-1.91;75.01;102869.22;5062081;28;20036;-40
2022/12/18 00:35:20;;;;;;;49.38;24.23;;;;;;;-1.95;74.63;102863.69;5062106;28;20032;-41
2022/12/18 00:37:45;;;;;;;55.17;25.13;;;;;;;-1.97;74.82;102855.06;5064783;28;20381;-41
2022/12/18 00:40:11;;;;;;;53.42;25.48;;;;;;;-1.94;74.77;102860.44;5065346;28;20484;-41
2022/12/18 00:45:21;;;;;;;56.10;25.48;;;;;;;-1.97;74.52;102855.94;5061229;28;20193;-42
2022/12/18 00:47:46;;;;;;;55.70;25.10;;;;;;;-1.99;74.47;102862.47;5060278;28;20766;-40
2022/12/18 00:50:11;;;;;;;50.35;24.25;;;;;;;-1.95;74.61;102857.00;5055785;28;20944;-44
2022/12/18 00:52:37;;;;;;;51.88;24.77;;;;;;;-2.00;74.12;102855.63;5059048;28;20115;-41
2022/12/18 00:55:02;;;;;;;47.37;23.37;;;;;;;-1.99;74.39;102849.84;5064737;28;20028;-44
2022/12/18 00:57:28;;;;;;;49.85;24.60;;;;;;;-2.09;74.29;102853.72;5067820;28;20025;-41
2022/12/18 00:59:53;;;;;;;50.05;24.52;;;;;;;-2.05;74.20;102850.81;5061335;28;20097;-40
2022/12/18 01:02:18;;;;;;;50.03;24.50;;;;;;;-2.06;74.07;102844.88;5069509;28;20470;-41
2022/12/18 01:04:44;;;;;;;54.42;24.48;;;;;;;-2.09;74.08;102856.22;5068582;28;20506;-41
2022/12/18 01:07:09;;;;;;;48.40;23.97;;;;;;;-2.07;73.69;102858.19;5075899;28;20601;-40
2022/12/18 01:09:34;;;;;;;50.58;23.80;;;;;;;-2.13;73.72;102866.69;5071408;28;20483;-41
2022/12/18 01:12:00;;;;;;;50.03;24.30;;;;;;;-2.10;73.73;102879.66;5079103;28;20032;-41
2022/12/18 01:14:25;;;;;;;48.60;23.88;;;;;;;-2.12;73.80;102883.59;5073192;28;20032;-42
2022/12/18 01:16:51;;;;;;;47.03;23.63;;;;;;;-2.12;73.77;102887.06;5069067;28;20060;-41
2022/12/18 01:19:16;;;;;;;48.13;23.92;;;;;;;-2.15;73.86;102881.66;5063449;28;20027;-41
2022/12/18 01:21:41;;;;;;;49.20;24.58;;;;;;;-2.17;73.58;102889.06;5059437;28;20028;-43
2022/12/18 01:24:07;;;;;;;48.72;23.40;;;;;;;-2.19;73.17;102880.41;5056474;28;20439;-42
2022/12/18 01:26:32;;;;;;;51.40;24.02;;;;;;;-2.19;73.29;102884.53;5054042;28;20965;-44
2022/12/18 01:28:58;;;;;;;47.13;23.73;;;;;;;-2.22;73.16;102877.56;5055621;28;20066;-40
2022/12/18 01:31:25;;;;;;;48.28;24.45;;;;;;;-2.22;73.29;102881.69;5055979;28;20473;-41
2022/12/18 01:33:52;;;;;;;48.45;23.27;;;;;;;-2.30;73.07;102885.00;5058581;28;20033;-41
2022/12/18 01:36:20;;;;;;;45.80;22.73;;;;;;;-2.27;73.54;102878.66;5058985;28;20028;-41
2022/12/18 01:38:45;;;;;;;45.13;22.52;;;;;;;-2.29;73.43;102867.53;5056245;28;20028;-41
2022/12/18 01:41:12;;;;;;;47.08;23.98;;;;;;;-2.30;73.19;102864.84;5053388;28;20024;-42
2022/12/18 01:43:49;;;;;;;47.22;23.02;;;;;;;-2.28;73.61;102869.31;5050382;28;20064;-40
2022/12/18 01:46:17;;;;;;;51.72;23.52;;;;;;;-2.38;72.96;102858.94;5054596;28;20035;-41
2022/12/18 01:48:44;;;;;;;47.63;23.77;;;;;;;-2.38;73.33;102863.06;5058725;28;20078;-40
2022/12/18 01:51:11;;;;;;;46.70;23.17;;;;;;;-2.42;72.97;102864.38;5058495;28;20518;-41
2022/12/18 01:53:38;;;;;;;45.58;23.38;;;;;;;-2.40;73.26;102870.47;5058210;28;20074;-42
2022/12/18 01:56:04;;;;;;;47.53;23.67;;;;;;;-2.44;73.26;102869.22;5055551;28;20476;-40
2022/12/18 01:58:54;;;;;;;50.42;22.60;;;;;;;-2.37;73.45;102870.78;5056352;28;20028;-41
2022/12/18 02:01:22;;;;;;;47.47;22.93;;;;;;;-2.46;73.20;102872.31;5066030;28;20166;-41
2022/12/18 02:03:47;;;;;;;48.38;23.25;;;;;;;-2.47;73.20;102866.38;5072217;28;20024;-40
2022/12/18 02:06:18;;;;;;;49.70;23.35;;;;;;;-2.43;73.12;102872.63;5063421;28;20029;-41
2022/12/18 02:09:01;;;;;;;48.22;23.25;;;;;;;-2.42;73.14;102859.34;5073439;28;20075;-41
2022/12/18 02:11:50;;;;;;;44.97;22.55;;;;;;;-2.41;73.33;102856.09;5077866;28;20043;-40
2022/12/18 02:14:36;;;;;;;47.92;22.75;;;;;;;-2.44;73.19;102855.72;5074595;28;20024;-40
2022/12/18 02:17:11;;;;;;;48.92;22.48;;;;;;;-2.51;73.02;102864.22;5070643;28;20043;-42
2022/12/18 02:19:39;;;;;;;47.10;22.67;;;;;;;-2.54;73.03;102861.38;5075661;28;20118;-42
2022/12/18 02:22:16;;;;;;;45.53;22.33;;;;;;;-2.55;72.82;102861.19;5064256;28;20471;-43
2022/12/18 02:25:13;;;;;;;47.47;22.65;;;;;;;-2.51;73.06;102850.75;5063510;28;20033;-41
2022/12/18 02:27:40;;;;;;;46.33;22.63;;;;;;;-2.59;72.61;102856.56;5067562;28;20039;-42
2022/12/18 02:30:06;;;;;;;47.58;22.98;;;;;;;-2.60;72.66;102865.72;5063576;28;20064;-43
2022/12/18 02:32:37;;;;;;;42.00;21.00;;;;;;;-2.57;72.91;102866.06;5062992;28;20455;-41
2022/12/18 02:35:05;;;;;;;43.38;21.58;;;;;;;-2.59;72.58;102866.63;5059260;28;20568;-41
2022/12/18 02:37:33;;;;;;;45.30;22.23;;;;;;;-2.55;72.37;102873.78;5060269;28;20602;-41
2022/12/18 02:40:00;;;;;;;44.15;21.63;;;;;;;-2.60;72.08;102860.69;5063977;28;20086;-41
2022/12/18 02:42:27;;;;;;;42.13;21.83;;;;;;;-2.59;72.29;102861.59;5063400;28;20040;-40
2022/12/18 02:44:52;;;;;;;41.92;21.52;;;;;;;-2.62;72.35;102857.09;5058643;28;20090;-42
2022/12/18 02:47:21;;;;;;;40.97;20.83;;;;;;;-2.64;72.13;102852.63;5062989;28;20032;-41
2022/12/18 02:50:08;;;;;;;39.65;20.38;;;;;;;-2.61;72.25;102847.91;5064271;28;20388;-42
2022/12/18 02:52:39;;;;;;;42.55;20.52;;;;;;;-2.64;72.03;102837.50;5065537;28;20058;-41
2022/12/18 02:55:30;;;;;;;45.00;21.08;;;;;;;-2.59;72.58;102843.97;5065059;28;20029;-41
2022/12/18 02:58:02;;;;;;;40.95;20.67;;;;;;;-2.65;72.05;102835.72;5077403;28;20488;-40
2022/12/18 03:00:43;;;;;;;42.30;20.38;;;;;;;-2.62;72.41;102848.63;5070021;28;20536;-40
2022/12/18 03:03:17;;;;;;;41.53;19.77;;;;;;;-2.67;72.24;102837.13;5064413;28;20484;-41
2022/12/18 03:06:10;;;;;;;41.53;20.67;;;;;;;-2.59;72.45;102836.41;5065618;28;20030;-40
2022/12/18 03:08:44;;;;;;;39.10;19.90;;;;;;;-2.65;72.20;102840.75;5073947;28;20053;-40
2022/12/18 03:11:11;;;;;;;38.72;19.98;;;;;;;-2.71;71.89;102831.78;5069103;28;20060;-42
2022/12/18 03:13:46;;;;;;;40.08;20.15;;;;;;;-2.70;71.83;102828.53;5078490;28;20032;-41
2022/12/18 03:16:17;;;;;;;38.65;19.85;;;;;;;-2.70;72.18;102826.00;5069800;28;20451;-41
2022/12/18 03:18:50;;;;;;;36.57;18.33;;;;;;;-2.70;72.27;102815.94;5073374;28;20934;-43
2022/12/18 03:21:19;;;;;;;36.47;18.43;;;;;;;-2.70;72.28;102823.50;5064629;28;20028;-42
2022/12/18 03:23:47;;;;;;;;;;;;;;;-2.49;72.42;102822.50;5066401;28;20028;-41
2022/12/18 03:26:17;;;;;;;35.63;18.23;;;;;;;-2.63;71.77;102816.63;5064620;28;19916;-41
2022/12/18 03:28:48;;;;;;;34.80;17.47;;;;;;;-2.64;71.89;102822.41;5064440;28;20044;-44
2022/12/18 03:31:14;;;;;;;35.53;18.43;;;;;;;-2.68;71.95;102815.22;5065735;28;20032;-42
2022/12/18 03:33:47;;;;;;;35.60;17.30;;;;;;;-2.69;71.99;102824.38;5059926;28;20032;-42
2022/12/18 03:36:12;;;;;;;34.73;17.93;;;;;;;-2.68;71.71;102818.63;5060241;28;20028;-41
2022/12/18 03:38:38;;;;;;;38.30;17.97;;;;;;;-2.70;71.39;102810.00;5059672;28;20046;-41
2022/12/18 03:41:03;;;;;;;31.13;17.67;;;;;;;-2.72;71.25;102814.88;5058341;28;20040;-43
2022/12/18 03:43:47;;;;;;;36.70;18.97;;;;;;;-2.79;71.50;102817.44;5058656;28;20028;-40
2022/12/18 03:46:30;;;;;;;36.33;17.93;;;;;;;-2.74;71.84;102820.44;5063089;28;20028;-41
2022/12/18 03:49:09;;;;;;;35.03;17.60;;;;;;;-2.75;71.85;102804.44;5056905;28;20029;-40
2022/12/18 03:52:06;;;;;;;32.63;16.70;;;;;;;-2.72;71.65;102807.31;5058531;28;20185;-42
2022/12/18 03:54:34;;;;;;;30.00;16.10;;;;;;;-2.79;71.63;102794.78;5060205;28;20124;-41
2022/12/18 03:57:07;;;;;;;31.97;16.87;;;;;;;-2.78;71.33;102796.56;5059957;28;20016;-41
2022/12/18 03:59:34;;;;;;;34.03;17.30;;;;;;;-2.78;71.59;102796.56;5053333;28;20025;-43
2022/12/18 04:02:02;;;;;;;34.90;15.90;;;;;;;-2.77;71.63;102790.81;5059008;28;20436;-41
2022/12/18 04:04:28;;;;;;;30.00;16.10;;;;;;;-2.84;71.33;102788.34;5054914;28;20445;-41
2022/12/18 04:06:55;;;;;;;31.57;16.57;;;;;;;-2.87;71.76;102782.03;5058536;28;20626;-41
2022/12/18 04:09:21;;;;;;;32.40;16.53;;;;;;;-2.90;71.43;102777.56;5058736;28;20516;-43
2022/12/18 04:11:47;;;;;;;28.83;14.73;;;;;;;-2.94;71.30;102769.50;5068030;28;20039;-41
2022/12/18 04:14:13;;;;;;;33.87;16.50;;;;;;;-2.94;71.48;102762.84;5063663;28;20439;-41
2022/12/18 04:16:38;;;;;;;32.10;16.10;;;;;;;-2.90;71.53;102761.56;5063845;28;20112;-40
2022/12/18 04:19:04;;;;;;;30.77;15.73;;;;;;;-2.94;71.45;102764.47;5061806;28;20032;-41
2022/12/18 04:21:29;;;;;;;28.07;15.20;;;;;;;-2.91;71.38;102768.25;5069318;28;20038;-41
2022/12/18 04:23:55;;;;;;;27.90;15.23;;;;;;;-2.95;71.30;102765.19;5070857;28;20027;-40
2022/12/18 04:26:20;;;;;;;32.90;15.70;;;;;;;-2.96;71.58;102764.31;5081269;28;20030;-40
2022/12/18 04:28:45;;;;;;;29.70;15.33;;;;;;;-2.95;71.42;102768.59;5071769;28;22169;-41
2022/12/18 04:31:11;;;;;;;28.97;14.97;;;;;;;-2.97;71.64;102765.94;5062721;28;20067;-40
2022/12/18 04:33:36;;;;;;;26.50;14.47;;;;;;;-2.94;71.22;102766.97;5064249;28;20526;-41
2022/12/18 04:36:02;;;;;;;29.23;14.97;;;;;;;-3.02;71.38;102769.53;5065253;28;20024;-42
2022/12/18 04:38:28;;;;;;;31.10;16.03;;;;;;;-2.97;71.65;102775.09;5061907;28;20028;-42
2022/12/18 04:40:53;;;;;;;26.40;14.37;;;;;;;-2.97;71.35;102780.13;5061814;28;20059;-42
2022/12/18 04:43:18;;;;;;;29.50;14.60;;;;;;;-2.98;71.24;102786.75;5065429;28;20032;-40
2022/12/18 04:45:44;;;;;;;28.23;13.97;;;;;;;-2.98;71.15;102783.34;5066422;28;20090;-41
2022/12/18 04:48:09;;;;;;;27.10;14.73;;;;;;;-2.98;70.90;102780.81;5064331;28;20032;-41
2022/12/18 04:50:34;;;;;;;25.90;14.17;;;;;;;-3.00;71.12;102790.72;5060730;28;20031;-40
2022/12/18 04:53:00;;;;;;;27.10;13.97;;;;;;;-3.00;71.08;102792.34;5063860;28;20139;-41
2022/12/18 04:55:26;;;;;;;26.02;13.80;;;;;;;-3.01;70.89;102795.59;5060932;28;20497;-42
2022/12/18 04:57:51;;;;;;;26.13;13.70;;;;;;;-3.03;70.72;102799.56;5057766;28;20095;-40
2022/12/18 05:00:17;;;;;;;23.47;12.87;;;;;;;-2.98;70.80;102809.41;5054643;28;20036;-40
2022/12/18 05:02:42;;;;;;;26.63;13.77;;;;;;;-2.97;71.01;102807.81;5060534;28;20147;-41
2022/12/18 05:05:08;;;;;;;24.20;13.37;;;;;;;-3.00;70.65;102815.00;5055724;28;20029;-40
2022/12/18 05:07:33;;;;;;;28.63;13.43;;;;;;;-3.00;70.72;102812.50;5060774;28;20056;-41
2022/12/18 05:09:59;;;;;;;25.13;14.00;;;;;;;-3.04;70.82;102810.34;5060543;28;20158;-41
2022/12/18 05:12:24;;;;;;;25.17;13.30;;;;;;;-3.03;71.04;102815.56;5057557;28;20040;-41
2022/12/18 05:14:49;;;;;;;26.37;13.73;;;;;;;-3.02;70.85;102812.31;5058794;28;20166;-41
2022/12/18 05:17:15;;;;;;;25.30;14.33;;;;;;;-3.01;70.59;102813.22;5056783;28;20028;-40
2022/12/18 05:19:40;;;;;;;22.60;12.77;;;;;;;-3.04;70.23;102813.75;5059267;28;20028;-41
2022/12/18 05:22:06;;;;;;;26.93;14.10;;;;;;;-3.06;70.87;102804.25;5059282;28;20028;-41
2022/12/18 05:24:31;;;;;;;24.93;13.10;;;;;;;-3.07;70.59;102813.41;5054477;28;20057;-42
2022/12/18 05:26:57;;;;;;;28.97;14.37;;;;;;;-3.06;70.83;102810.19;5060514;28;20064;-44
2022/12/18 05:29:22;;;;;;;24.90;12.73;;;;;;;-3.06;70.94;102805.16;5055613;28;20058;-42
2022/12/18 05:31:47;;;;;;;28.13;12.70;;;;;;;-3.12;70.23;102799.41;5056795;28;20439;-41
2022/12/18 05:34:13;;;;;;;26.07;13.60;;;;;;;-3.09;70.89;102798.88;5061584;28;20139;-42
2022/12/18 05:36:38;;;;;;;22.93;12.47;;;;;;;-3.11;70.72;102805.34;5060536;28;20062;-42
2022/12/18 05:39:04;;;;;;;25.40;12.83;;;;;;;-3.06;70.82;102814.31;5057915;28;20041;-40
2022/12/18 05:41:29;;;;;;;24.37;12.33;;;;;;;-3.03;70.49;102809.66;5059495;28;20028;-40
2022/12/18 05:43:55;;;;;;;23.30;12.87;;;;;;;-3.03;70.60;102802.09;5055331;28;20489;-40
2022/12/18 05:46:20;;;;;;;23.80;13.03;;;;;;;-3.06;70.75;102799.22;5054389;28;20044;-43
2022/12/18 05:48:46;;;;;;;23.70;12.83;;;;;;;-3.10;70.72;102794.53;5059097;28;20056;-40
2022/12/18 05:51:15;;;;;;;24.90;12.73;;;;;;;-3.09;70.98;102786.31;5058183;28;21933;-41
2022/12/18 05:53:41;;;;;;;24.27;12.77;;;;;;;-3.08;71.14;102781.44;5061391;28;20056;-40
2022/12/18 05:56:12;;;;;;;24.00;13.10;;;;;;;-3.10;70.98;102776.94;5059666;28;20052;-41
2022/12/18 05:58:38;;;;;;;23.87;12.73;;;;;;;-3.09;70.98;102773.72;5061493;28;20025;-41
2022/12/18 06:01:20;;;;;;;23.03;12.30;;;;;;;-3.03;71.05;102775.31;5077640;28;20358;-40
2022/12/18 06:03:45;;;;;;;22.27;11.57;;;;;;;-3.09;70.80;102773.72;5068685;28;20052;-42
2022/12/18 06:06:19;;;;;;;23.77;13.13;;;;;;;-3.06;71.24;102784.13;5056858;28;20116;-41
2022/12/18 06:08:45;;;;;;;24.63;12.30;;;;;;;-3.12;71.33;102779.28;5060500;28;20060;-41
2022/12/18 06:11:10;;;;;;;22.70;12.47;;;;;;;-3.11;71.25;102771.00;5068008;28;20028;-40
2022/12/18 06:13:36;;;;;;;24.00;12.43;;;;;;;-3.11;71.33;102771.00;5065259;28;20389;-44
2022/12/18 06:16:05;;;;;;;23.10;12.67;;;;;;;-3.18;71.16;102766.00;5061997;28;20044;-41
2022/12/18 06:18:32;;;;;;;22.70;13.20;;;;;;;-3.19;71.30;102764.22;5065010;28;20082;-42
2022/12/18 06:20:58;;;;;;;21.47;12.60;;;;;;;-3.19;71.64;102770.88;5072280;28;20032;-41
2022/12/18 06:23:24;;;;;;;21.77;12.20;;;;;;;-3.20;71.71;102774.13;5072929;28;20039;-40
2022/12/18 06:25:51;;;;;;;20.57;12.40;;;;;;;-3.19;71.79;102776.81;5075656;28;20051;-43
2022/12/18 06:28:16;;;;;;;25.40;12.77;;;;;;;-3.16;71.43;102778.75;5077892;28;20028;-41
2022/12/18 06:30:46;;;;;;;22.67;13.00;;;;;;;-3.15;71.38;102785.59;5081716;28;20038;-41
2022/12/18 06:33:11;;;;;;;22.87;12.93;;;;;;;-3.15;71.24;102785.59;5060692;28;20099;-42
2022/12/18 06:35:37;;;;;;;24.33;13.73;;;;;;;-3.15;71.50;102773.91;5062151;28;20119;-42
2022/12/18 06:38:02;;;;;;;22.03;12.73;;;;;;;-3.15;71.12;102773.91;5057692;28;20048;-42
2022/12/18 06:40:28;;;;;;;23.73;12.60;;;;;;;-3.14;70.99;102774.81;5063120;28;20369;-40
2022/12/18 06:42:54;;;;;;;23.77;12.67;;;;;;;-3.12;71.21;102766.69;5064367;28;20028;-44
2022/12/18 06:45:19;;;;;;;24.27;13.23;;;;;;;-3.13;71.12;102764.91;5055442;28;20120;-41
2022/12/18 06:47:44;;;;;;;25.10;12.80;;;;;;;-3.16;70.94;102766.19;5057212;28;20558;-41
2022/12/18 06:50:10;;;;;;;26.43;13.30;;;;;;;-3.15;71.02;102757.94;5056850;28;20053;-41
2022/12/18 06:52:36;;;;;;;22.10;13.17;;;;;;;-3.18;71.20;102757.56;5056490;28;20033;-40
2022/12/18 06:55:02;;;;;;;24.20;13.47;;;;;;;-3.14;70.89;102752.16;5061992;28;20086;-41
2022/12/18 06:57:28;;;;;;;23.50;13.57;;;;;;;-3.15;70.77;102756.31;5056262;28;20024;-41
2022/12/18 06:59:53;;;;;;;25.30;13.80;;;;;;;-3.14;70.85;102760.63;5052195;28;20036;-41
2022/12/18 07:02:18;;;;;;;24.93;13.00;;;;;;;-3.14;70.84;102757.19;5053585;28;20024;-42
2022/12/18 07:04:44;;;;;;;22.63;13.63;;;;;;;-3.15;70.71;102762.97;5059899;28;20116;-42
2022/12/18 07:07:09;;;;;;;23.40;13.43;;;;;;;-3.14;70.92;102752.16;5058745;28;20469;-40
2022/12/18 07:09:34;;;;;;;20.83;12.70;;;;;;;-3.12;70.34;102753.22;5052597;28;20493;-40
2022/12/18 07:12:00;;;;;;;23.97;12.83;;;;;;;-3.14;70.37;102734.56;5057673;28;20780;-40
2022/12/18 07:14:25;;;;;;;22.37;13.20;;;;;;;-3.17;70.62;102729.16;5055033;28;20029;-40
2022/12/18 07:16:50;;;;;;;25.97;13.97;;;;;;;-3.17;70.63;102741.75;5056132;28;20037;-41
2022/12/18 07:19:16;;;;;;;27.43;13.90;;;;;;;-3.21;70.64;102727.94;5056735;28;20063;-40
2022/12/18 07:21:41;;;;;;;26.03;13.23;;;;;;;-3.27;71.15;102724.72;5061107;28;20036;-42
2022/12/18 07:24:07;;;;;;;24.13;12.60;;;;;;;-3.28;70.99;102722.91;5054261;28;20127;-44
2022/12/18 07:26:32;;;;;;;24.70;13.50;;;;;;;-3.33;71.14;102717.38;5059176;28;20052;-42
2022/12/18 07:28:58;;;;;;;24.30;13.60;;;;;;;-3.29;70.90;102714.47;5056268;28;20063;-40
2022/12/18 07:31:25;;;;;;;23.67;13.70;;;;;;;-3.29;71.17;102708.56;5055317;28;20719;-41
2022/12/18 07:33:51;;;;;;;25.77;13.70;;;;;;;-3.29;71.32;102701.91;5060498;28;20110;-40
2022/12/18 07:36:17;;;;;;;24.27;13.00;;;;;;;-3.29;71.46;102695.97;5060693;28;20497;-42
2022/12/18 07:38:42;;;;;;;23.53;12.90;;;;;;;-3.30;71.31;102692.56;5056482;28;20032;-43
2022/12/18 07:41:13;;;;;;;23.70;12.83;;;;;;;-3.29;71.42;102693.47;5059591;28;20060;-41
2022/12/18 07:43:39;;;;;;;25.50;13.77;;;;;;;-3.33;71.27;102692.25;5059303;28;23265;-41
2022/12/18 07:46:05;;;;;;;25.73;13.60;;;;;;;-3.29;71.40;102683.41;5061159;28;20060;-41
2022/12/18 07:48:31;;;;;;;27.27;14.17;;;;;;;-3.27;71.42;102679.44;5062915;28;20028;-41
2022/12/18 07:51:05;;;;;;;23.23;13.43;;;;;;;-3.24;71.72;102675.63;5056109;28;20111;-42
2022/12/18 07:53:30;;;;;;;24.87;13.27;;;;;;;-3.30;71.48;102662.38;5061249;28;20048;-40
2022/12/18 07:55:57;;;;;;;23.13;12.83;;;;;;;-3.28;71.82;102653.38;5065330;28;20029;-42
2022/12/18 07:58:23;;;;;;;25.47;13.63;;;;;;;-3.30;71.79;102659.84;5061886;28;20021;-41
2022/12/18 08:00:48;;;;;;;24.73;13.40;;;;;;;-3.27;72.24;102664.34;5061774;28;20032;-42
2022/12/18 08:03:14;;;;;;;22.67;13.27;;;;;;;-3.28;72.43;102665.94;5061867;28;20453;-40
2022/12/18 08:05:39;;;;;;;25.30;13.13;;;;;;;-3.25;72.22;102666.31;5065840;28;20028;-42
2022/12/18 08:08:04;;;;;;;26.70;13.80;;;;;;;-3.22;72.55;102674.91;5069187;28;20052;-43
2022/12/18 08:10:30;;;;;;;24.60;13.40;;;;;;;-3.20;72.50;102670.97;5083117;28;20408;-42
2022/12/18 08:12:55;;;;;;;25.60;14.20;;;;;;;-3.21;72.91;102669.19;5074925;28;20036;-40
2022/12/18 08:15:20;;;;;;;24.03;13.93;;;;;;;-3.15;73.25;102667.34;5059459;28;20048;-45
2022/12/18 08:17:46;;;;;;;27.03;14.13;;;;;;;-3.10;72.93;102674.66;5059654;28;20048;-40
2022/12/18 08:20:11;;;;;;;26.33;14.50;;;;;;;-3.11;73.05;102667.84;5057355;28;20032;-40
2022/12/18 08:22:36;;;;;;;24.13;14.90;;;;;;;-3.09;73.06;102673.06;5063334;28;20040;-42
2022/12/18 08:25:03;;;;;;;23.47;14.13;;;;;;;-3.06;73.10;102688.47;5064462;28;20106;-43
2022/12/18 08:27:29;;;;;;;26.03;13.63;;;;;;;-3.06;73.30;102688.47;5058802;28;20040;-43
2022/12/18 08:29:55;;;;;;;26.63;13.93;;;;;;;-3.03;73.24;102678.78;5055933;28;20047;-40
2022/12/18 08:32:20;;;;;;;24.83;14.10;;;;;;;-3.00;73.45;102681.63;5060185;28;20127;-42
2022/12/18 08:34:45;;;;;;;25.10;14.43;;;;;;;-2.96;73.58;102671.16;5057343;28;20116;-44
2022/12/18 08:37:11;;;;;;;26.70;14.27;;;;;;;-2.93;73.70;102679.03;5059638;28;20040;-40
2022/12/18 08:39:36;;;;;;;24.97;13.87;;;;;;;-2.91;73.49;102662.50;5058923;28;20083;-42
2022/12/18 08:44:45;;;;;;;26.73;14.07;;;;;;;-2.82;73.55;102648.41;5055782;28;20051;-41
2022/12/18 08:47:10;;;;;;;23.05;13.52;;;;;;;-2.78;73.48;102655.56;5056227;28;20029;-40
2022/12/18 08:49:36;;;;;;;24.83;13.97;;;;;;;-2.77;73.61;102654.84;5056384;28;20028;-42
2022/12/18 08:52:02;;;;;;;25.37;13.60;;;;;;;-2.73;73.56;102641.88;5058575;28;20120;-43
2022/12/18 08:54:28;;;;;;;26.00;14.03;;;;;;;-2.67;73.60;102638.22;5061920;28;20060;-42
2022/12/18 08:56:53;;;;;;;24.67;14.67;;;;;;;-2.62;73.86;102643.03;5058520;28;20043;-41
2022/12/18 08:59:19;;;;;;;26.17;14.03;;;;;;;-2.56;73.91;102653.75;5057552;28;20041;-46
2022/12/18 09:01:46;;;;;;;27.63;14.47;;;;;;;-2.51;73.56;102647.59;5066511;28;20035;-41
2022/12/18 09:04:11;;;;;;;25.90;13.83;;;;;;;-2.45;73.46;102639.81;5062889;28;20035;-43
2022/12/18 09:06:37;;;;;;;23.00;13.37;;;;;;;-2.39;73.56;102653.06;5074521;28;20029;-42
2022/12/18 09:09:04;;;;;;;22.20;13.23;;;;;;;-2.39;73.43;102649.66;5054971;28;20102;-42
2022/12/18 09:11:30;;;;;;;24.70;13.63;;;;;;;-2.35;73.35;102660.25;5056787;28;20373;-44
2022/12/18 09:13:56;;;;;;;24.45;13.88;;;;;;;-2.35;73.36;102651.78;5061217;28;20032;-41
2022/12/18 09:16:23;;;;;;;26.80;14.25;;;;;;;-2.31;73.59;102649.75;5062380;28;20036;-42
2022/12/18 09:18:49;;;;;;;23.48;13.43;;;;;;;-2.21;73.59;102662.63;5061662;28;20051;-42
2022/12/18 09:21:20;;;;;;;24.63;13.93;;;;;;;-2.13;73.52;102665.94;5057617;28;20041;-43
2022/12/18 09:23:54;;;;;;;24.73;14.53;;;;;;;-2.09;73.51;102683.19;5056551;28;20044;-46
2022/12/18 09:26:21;;;;;;;23.88;13.82;;;;;;;-2.08;73.56;102685.00;5058234;28;20089;-41
2022/12/18 09:28:46;;;;;;;24.17;13.90;;;;;;;-2.08;73.54;102674.91;5063062;28;20473;-40
2022/12/18 09:31:12;;;;;;;25.30;14.13;;;;;;;-2.06;73.69;102672.53;5062042;28;20092;-45
2022/12/18 09:33:38;;;;;;;23.33;13.93;;;;;;;-2.01;73.66;102666.38;5061066;28;20389;-42
2022/12/18 09:36:06;;;;;;;23.85;13.75;;;;;;;-2.00;73.53;102663.13;5059335;28;20474;-43
2022/12/18 09:38:32;;;;;;;25.40;13.73;;;;;;;-1.97;73.44;102651.75;5053458;28;20090;-44
2022/12/18 09:41:04;;;;;;;24.33;14.13;;;;;;;-1.95;73.46;102646.84;5053699;28;20024;-42
2022/12/18 09:43:39;;;;;;;26.50;14.60;;;;;;;-1.95;73.79;102637.66;5055179;28;20111;-41
2022/12/18 09:46:08;;;;;;;26.90;14.98;;;;;;;-1.93;74.03;102635.31;5056500;28;20093;-41
2022/12/18 09:48:42;;;;;;;24.42;13.50;;;;;;;-1.90;74.33;102626.44;5055947;28;20021;-41
2022/12/18 09:51:39;;;;;;;25.42;14.13;;;;;;;-1.84;73.99;102633.75;5058889;28;20021;-41
2022/12/18 09:54:11;;;;;;;23.88;13.75;;;;;;;-1.86;73.99;102617.59;5077623;28;20032;-40
2022/12/18 09:56:41;;;;;;;26.13;14.23;;;;;;;-1.82;74.36;102609.63;5074103;28;20405;-40
2022/12/18 09:59:26;;;;;;;23.70;14.23;;;;;;;-1.75;74.27;102611.16;5060513;28;20182;-41
2022/12/18 10:01:51;;;;;;;24.95;14.43;;;;;;;-1.76;74.01;102610.28;5072336;28;20043;-42
2022/12/18 10:04:17;;;;;;;23.98;13.80;;;;;;;-1.73;74.11;102615.63;5068440;28;20029;-41
2022/12/18 10:06:58;;;;;;;24.25;14.18;;;;;;;-1.66;74.07;102625.59;5078022;28;20480;-41
2022/12/18 10:09:44;;;;;;;25.67;14.32;;;;;;;-1.60;74.45;102627.88;5066881;28;20472;-42
2022/12/18 10:12:43;;;;;;;26.23;14.88;;;;;;;-1.52;74.32;102618.59;5081085;28;20574;-42
2022/12/18 10:15:24;;;;;;;25.13;14.20;;;;;;;-1.46;74.10;102611.66;5065199;28;20448;-40
2022/12/18 10:18:04;;;;;;;25.85;14.43;;;;;;;-1.42;74.00;102613.78;5068551;28;20028;-43
2022/12/18 10:20:44;;;;;;;25.65;14.88;;;;;;;-1.40;73.64;102612.28;5081998;28;20035;-44
2022/12/18 10:23:22;;;;;;;25.88;14.68;;;;;;;-1.39;73.85;102612.47;5074138;28;20094;-42
2022/12/18 10:26:17;;;;;;;24.95;14.73;;;;;;;-1.34;74.25;102623.00;5069671;28;20103;-42
2022/12/18 10:28:43;;;;;;;26.42;15.20;;;;;;;-1.35;74.40;102608.63;5074671;28;20036;-42
2022/12/18 10:31:20;;;;;;;25.40;14.65;;;;;;;-1.35;74.16;102599.41;5065102;28;20032;-40
2022/12/18 10:33:46;;;;;;;27.85;14.90;;;;;;;-1.33;74.33;102604.66;5075217;28;20447;-41
2022/12/18 10:36:12;;;;;;;25.38;14.57;;;;;;;-1.30;74.22;102597.38;5068454;28;20111;-42
2022/12/18 10:38:37;;;;;;;28.67;15.05;;;;;;;-1.24;74.22;102587.91;5055667;28;20020;-41
2022/12/18 10:41:04;;;;;;;25.88;14.40;;;;;;;-1.22;74.70;102583.91;5068995;28;20074;-41
2022/12/18 10:43:36;;;;;;;25.40;15.27;;;;;;;-1.13;74.33;102569.72;5070472;28;20089;-41
2022/12/18 10:46:14;;;;;;;28.08;14.95;;;;;;;-1.10;74.33;102567.47;5071505;28;20062;-41
2022/12/18 10:48:47;;;;;;;27.70;14.57;;;;;;;-1.02;74.29;102567.38;5071321;28;20028;-41
2022/12/18 10:51:35;;;;;;;23.23;14.60;;;;;;;-0.98;74.10;102562.78;5065624;28;20497;-40
2022/12/18 10:54:06;;;;;;;28.50;15.70;;;;;;;-1.00;74.48;102556.69;5067889;28;20462;-42
2022/12/18 10:56:34;;;;;;;27.38;15.55;;;;;;;-0.96;74.43;102547.81;5072737;28;20024;-40
2022/12/18 10:59:08;;;;;;;26.38;15.68;;;;;;;-0.95;74.66;102547.97;5066760;28;20032;-41
2022/12/18 11:01:48;;;;;;;24.88;14.52;;;;;;;-0.92;74.26;102545.72;5065846;28;20050;-43
2022/12/18 11:04:26;;;;;;;24.70;15.05;;;;;;;-0.92;74.18;102537.25;5072888;28;20462;-41
2022/12/18 11:07:04;;;;;;;26.17;15.13;;;;;;;-0.91;74.43;102541.56;5071266;28;20495;-41
2022/12/18 11:09:35;;;;;;;27.75;15.02;;;;;;;-0.88;74.32;102539.38;5075703;28;20163;-40
2022/12/18 11:12:05;;;;;;;27.98;15.65;;;;;;;-0.87;74.03;102538.63;5073574;28;20028;-40
2022/12/18 11:14:53;;;;;;;24.92;15.50;;;;;;;-0.84;74.16;102544.00;5075076;28;20032;-41
2022/12/18 11:17:34;;;;;;;21.33;13.90;;;;;;;-0.79;74.11;102547.84;5074205;28;20073;-41
2022/12/18 11:20:03;;;;;;;28.75;14.85;;;;;;;-0.82;74.12;102542.50;5077432;28;20024;-42
2022/12/18 11:22:34;;;;;;;26.13;15.53;;;;;;;-0.80;73.74;102548.59;5075962;28;20107;-41